createdAt,value
2018-04-02T00:00:23.683Z,43.20
2018-04-02T00:02:51.028Z,45.13
2018-04-02T00:05:18.331Z,46.67
2018-04-02T00:07:45.601Z,45.57
2018-04-02T00:10:12.871Z,42.63
2018-04-02T00:12:40.161Z,43.53
2018-04-02T00:15:07.429Z,48.20
2018-04-02T00:17:34.700Z,45.73
2018-04-02T00:20:01.989Z,45.20
2018-04-02T00:22:29.361Z,45.90
2018-04-02T00:24:56.624Z,43.20
2018-04-02T00:27:23.912Z,50.10
2018-04-02T00:29:51.196Z,48.13
2018-04-02T00:32:18.463Z,44.10
2018-04-02T00:34:45.730Z,53.50
2018-04-02T00:37:13.017Z,45.90
2018-04-02T00:39:40.289Z,43.10
2018-04-02T00:42:07.590Z,42.53
2018-04-02T00:44:34.872Z,50.40
2018-04-02T00:47:02.192Z,41.17
2018-04-02T00:49:29.481Z,44.47
2018-04-02T00:51:56.740Z,46.20
2018-04-02T00:54:24.040Z,41.77
2018-04-02T00:56:51.302Z,50.47
2018-04-02T00:59:18.572Z,46.50
2018-04-02T01:01:46.262Z,41.50
2018-04-02T01:04:13.620Z,45.40
2018-04-02T01:06:40.884Z,46.80
2018-04-02T01:09:08.171Z,47.07
2018-04-02T01:11:35.439Z,48.83
2018-04-02T01:14:02.705Z,44.00
2018-04-02T01:16:30.057Z,49.37
2018-04-02T01:18:57.414Z,47.87
2018-04-02T01:21:24.704Z,44.97
2018-04-02T01:23:52.016Z,44.23
2018-04-02T01:26:19.287Z,43.33
2018-04-02T01:28:46.540Z,43.30
2018-04-02T01:31:13.833Z,43.00
2018-04-02T01:33:41.131Z,42.27
2018-04-02T01:36:08.401Z,39.23
2018-04-02T01:38:35.701Z,40.80
2018-04-02T01:41:02.964Z,45.80
2018-04-02T01:43:30.254Z,40.83
2018-04-02T01:45:57.520Z,49.27
2018-04-02T01:48:24.788Z,41.03
2018-04-02T01:50:52.070Z,46.87
2018-04-02T01:53:19.337Z,42.30
2018-04-02T01:55:46.607Z,44.67
2018-04-02T01:58:13.896Z,41.77
2018-04-02T02:00:41.166Z,41.10
2018-04-02T02:03:08.465Z,43.70
2018-04-02T02:05:35.736Z,45.20
2018-04-02T02:08:03.020Z,43.20
2018-04-02T02:10:30.289Z,42.23
2018-04-02T02:12:57.556Z,42.80
2018-04-02T02:15:24.850Z,42.80
2018-04-02T02:17:52.109Z,46.27
2018-04-02T02:20:19.402Z,53.03
2018-04-02T02:22:46.675Z,41.70
2018-04-02T02:25:13.964Z,43.67
2018-04-02T02:27:41.320Z,41.10
2018-04-02T02:30:08.584Z,58.50
2018-04-02T02:32:35.932Z,43.13
2018-04-02T02:35:03.261Z,44.00
2018-04-02T02:37:30.489Z,46.93
2018-04-02T02:39:57.781Z,42.50
2018-04-02T02:42:25.070Z,41.73
2018-04-02T02:44:52.338Z,52.10
2018-04-02T02:47:19.633Z,40.77
2018-04-02T02:49:46.897Z,43.80
2018-04-02T02:52:14.157Z,40.70
2018-04-02T02:54:41.445Z,51.03
2018-04-02T02:57:08.773Z,43.07
2018-04-02T02:59:36.129Z,45.17
2018-04-02T03:02:03.418Z,39.40
2018-04-02T03:04:30.693Z,42.60
2018-04-02T03:06:57.985Z,42.27
2018-04-02T03:09:25.257Z,38.17
2018-04-02T03:11:52.597Z,43.00
2018-04-02T03:14:19.885Z,40.87
2018-04-02T03:16:47.156Z,44.67
2018-04-02T03:19:14.457Z,39.40
2018-04-02T03:21:41.716Z,37.37
2018-04-02T03:24:08.980Z,40.90
2018-04-02T03:26:36.273Z,36.30
2018-04-02T03:29:03.532Z,35.07
2018-04-02T03:31:30.802Z,37.27
2018-04-02T03:33:58.085Z,33.80
2018-04-02T03:36:25.377Z,39.63
2018-04-02T03:38:52.736Z,37.17
2018-04-02T03:41:20.022Z,36.30
2018-04-02T03:43:47.304Z,36.13
2018-04-02T03:46:14.597Z,33.10
2018-04-02T03:48:41.868Z,31.70
2018-04-02T03:51:09.128Z,34.57
2018-04-02T03:53:36.418Z,42.57
2018-04-02T03:56:03.684Z,34.87
2018-04-02T03:58:30.973Z,32.60
2018-04-02T04:00:58.245Z,34.70
2018-04-02T04:03:25.528Z,32.70
2018-04-02T04:05:52.792Z,34.90
2018-04-02T04:08:20.061Z,32.37
2018-04-02T04:10:47.357Z,35.80
2018-04-02T04:13:14.640Z,33.50
2018-04-02T04:15:42.004Z,31.90
2018-04-02T04:18:09.299Z,37.70
2018-04-02T04:20:36.559Z,33.93
2018-04-02T04:23:03.847Z,37.87
2018-04-02T04:25:31.112Z,36.90
2018-04-02T04:27:58.400Z,30.70
2018-04-02T04:30:25.667Z,29.47
2018-04-02T04:32:52.938Z,35.00
2018-04-02T04:35:20.233Z,36.37
2018-04-02T04:37:47.528Z,39.80
2018-04-02T04:40:14.817Z,28.97
2018-04-02T04:42:42.084Z,28.03
2018-04-02T04:45:09.453Z,26.50
2018-04-02T04:47:36.717Z,29.00
2018-04-02T04:50:04.007Z,30.20
2018-04-02T04:52:31.273Z,27.93
2018-04-02T04:54:58.564Z,28.30
2018-04-02T04:57:25.837Z,30.73
2018-04-02T04:59:53.101Z,26.13
2018-04-02T05:02:20.395Z,27.63
2018-04-02T05:04:47.660Z,24.60
2018-04-02T05:07:14.937Z,23.50
2018-04-02T05:09:42.204Z,24.10
2018-04-02T05:12:09.489Z,25.00
2018-04-02T05:14:36.773Z,24.63
2018-04-02T05:17:04.038Z,24.50
2018-04-02T05:19:31.329Z,32.23
2018-04-02T05:21:58.615Z,30.20
2018-04-02T05:24:25.880Z,32.17
2018-04-02T05:26:53.361Z,27.40
2018-04-02T05:29:20.620Z,26.10
2018-04-02T05:31:47.884Z,29.30
2018-04-02T05:34:15.174Z,31.03
2018-04-02T05:36:42.436Z,29.20
2018-04-02T05:39:09.708Z,28.60
2018-04-02T05:41:36.996Z,29.33
2018-04-02T05:44:04.261Z,28.20
2018-04-02T05:46:31.556Z,26.53
2018-04-02T05:48:58.859Z,27.50
2018-04-02T05:51:26.119Z,25.27
2018-04-02T05:53:53.422Z,24.43
2018-04-02T05:56:20.693Z,28.10
2018-04-02T05:58:48.009Z,25.23
2018-04-02T06:01:15.278Z,24.40
2018-04-02T06:03:42.585Z,26.30
2018-04-02T06:06:09.880Z,24.33
2018-04-02T06:08:37.208Z,23.50
2018-04-02T06:11:04.447Z,25.90
2018-04-02T06:13:31.738Z,26.03
2018-04-02T06:15:59.021Z,25.80
2018-04-02T06:18:26.289Z,26.07
2018-04-02T06:20:53.578Z,24.40
2018-04-02T06:23:20.844Z,28.73
2018-04-02T06:25:48.136Z,25.37
2018-04-02T06:28:15.403Z,27.73
2018-04-02T06:30:42.736Z,25.40
2018-04-02T06:33:10.071Z,27.50
2018-04-02T06:35:37.296Z,25.67
2018-04-02T06:38:04.571Z,26.77
2018-04-02T06:40:31.866Z,23.60
2018-04-02T06:42:59.130Z,24.83
2018-04-02T06:45:26.396Z,24.23
2018-04-02T06:47:53.690Z,25.30
2018-04-02T06:50:20.949Z,22.30
2018-04-02T06:52:48.274Z,24.37
2018-04-02T06:55:15.538Z,23.50
2018-04-02T06:57:42.877Z,25.37
2018-04-02T07:00:10.227Z,23.37
2018-04-02T07:02:37.489Z,24.10
2018-04-02T07:05:04.836Z,22.60
2018-04-02T07:07:32.135Z,23.17
2018-04-02T07:09:59.391Z,21.97
2018-04-02T07:12:26.660Z,23.80
2018-04-02T07:14:53.951Z,22.53
2018-04-02T07:17:21.212Z,22.90
2018-04-02T07:19:48.560Z,24.00
2018-04-02T07:22:15.852Z,22.47
2018-04-02T07:24:43.125Z,25.27
2018-04-02T07:27:10.398Z,23.73
2018-04-02T07:29:37.774Z,21.23
2018-04-02T07:32:05.056Z,24.63
2018-04-02T07:34:32.388Z,23.13
2018-04-02T07:36:59.676Z,24.00
2018-04-02T07:39:26.936Z,23.53
2018-04-02T07:41:54.229Z,21.33
2018-04-02T07:44:21.518Z,22.73
2018-04-02T07:46:48.796Z,20.40
2018-04-02T07:49:16.064Z,22.87
2018-04-02T07:51:43.353Z,20.90
2018-04-02T07:54:10.636Z,21.60
2018-04-02T07:56:37.912Z,19.37
2018-04-02T07:59:05.177Z,20.33
2018-04-02T08:01:32.465Z,20.10
2018-04-02T08:03:59.728Z,21.43
2018-04-02T08:06:27.125Z,19.83
2018-04-02T08:08:54.412Z,20.43
2018-04-02T08:11:21.677Z,20.30
2018-04-02T08:13:48.970Z,20.90
2018-04-02T08:16:16.232Z,18.03
2018-04-02T08:18:43.503Z,18.60
2018-04-02T08:21:10.789Z,18.90
2018-04-02T08:23:38.061Z,17.70
2018-04-02T08:26:05.316Z,18.80
2018-04-02T08:28:32.597Z,17.27
2018-04-02T08:30:59.893Z,16.73
2018-04-02T08:33:27.190Z,16.50
2018-04-02T08:35:54.536Z,16.40
2018-04-02T08:38:21.806Z,17.50
2018-04-02T08:40:49.101Z,15.67
2018-04-02T08:43:16.366Z,15.90
2018-04-02T08:45:43.664Z,15.90
2018-04-02T08:48:10.928Z,15.43
2018-04-02T08:50:38.221Z,14.67
2018-04-02T08:53:05.518Z,14.83
2018-04-02T08:55:32.780Z,13.87
2018-04-02T08:58:00.044Z,16.40
2018-04-02T09:00:27.392Z,15.67
2018-04-02T09:02:54.660Z,14.20
2018-04-02T09:05:21.932Z,15.63
2018-04-02T09:07:49.205Z,14.77
2018-04-02T09:10:16.474Z,13.23
2018-04-02T09:12:43.769Z,14.50
2018-04-02T09:15:11.060Z,15.50
2018-04-02T09:17:38.316Z,15.57
2018-04-02T09:20:05.608Z,12.20
2018-04-02T09:22:32.897Z,13.50
2018-04-02T09:25:00.164Z,13.47
2018-04-02T09:27:27.429Z,11.93
2018-04-02T09:29:54.757Z,13.10
2018-04-02T09:32:21.994Z,13.70
2018-04-02T09:34:49.288Z,13.70
2018-04-02T09:37:16.557Z,13.70
2018-04-02T09:39:43.817Z,14.07
2018-04-02T09:42:11.108Z,13.30
2018-04-02T09:44:38.456Z,14.47
2018-04-02T09:47:05.753Z,14.73
2018-04-02T09:49:33.018Z,14.80
2018-04-02T09:52:00.417Z,14.10
2018-04-02T09:54:27.777Z,13.83
2018-04-02T09:56:55.136Z,14.87
2018-04-02T09:59:22.452Z,15.10
2018-04-02T10:01:49.700Z,15.67
2018-04-02T10:04:16.968Z,14.90
2018-04-02T10:06:44.236Z,14.73
2018-04-02T10:09:11.518Z,17.57
2018-04-02T10:11:38.864Z,12.23
2018-04-02T10:14:06.154Z,14.47
2018-04-02T10:16:33.424Z,13.23
2018-04-02T10:19:00.688Z,12.20
2018-04-02T10:21:28.073Z,11.80
2018-04-02T10:23:55.363Z,13.90
2018-04-02T10:26:22.608Z,13.70
2018-04-02T10:28:49.936Z,15.27
2018-04-02T10:31:17.204Z,11.70
2018-04-02T10:33:44.506Z,13.13
2018-04-02T10:36:11.778Z,13.00
2018-04-02T10:38:39.131Z,13.60
2018-04-02T10:41:06.334Z,13.73
2018-04-02T10:43:33.644Z,13.40
2018-04-02T10:46:00.922Z,12.60
2018-04-02T10:48:28.184Z,12.67
2018-04-02T10:50:55.524Z,11.37
2018-04-02T10:53:22.800Z,11.90
2018-04-02T10:55:50.100Z,12.40
2018-04-02T10:58:17.365Z,11.33
2018-04-02T11:00:44.661Z,12.23
2018-04-02T11:03:12.000Z,11.10
2018-04-02T11:05:39.321Z,9.77
2018-04-02T11:08:06.581Z,9.53
2018-04-02T11:10:33.895Z,9.40
2018-04-02T11:13:01.145Z,9.73
2018-04-02T11:15:28.410Z,10.30
2018-04-02T11:17:55.749Z,9.60
2018-04-02T11:20:23.016Z,13.50
2018-04-02T11:22:50.288Z,11.27
2018-04-02T11:25:17.680Z,9.57
2018-04-02T11:27:44.969Z,9.57
2018-04-02T11:30:12.256Z,9.63
2018-04-02T11:32:39.542Z,9.47
2018-04-02T11:35:06.810Z,9.00
2018-04-02T11:37:34.057Z,8.17
2018-04-02T11:40:01.344Z,8.30
2018-04-02T11:42:28.595Z,9.33
2018-04-02T11:44:55.915Z,9.10
2018-04-02T11:47:23.269Z,9.63
2018-04-02T11:49:50.627Z,9.17
2018-04-02T11:52:17.912Z,9.03
2018-04-02T11:54:45.187Z,7.90
2018-04-02T11:57:12.482Z,8.30
2018-04-02T11:59:39.725Z,8.03
2018-04-02T12:02:07.008Z,9.03
2018-04-02T12:04:34.352Z,7.67
2018-04-02T12:07:01.624Z,8.83
2018-04-02T12:09:28.917Z,9.30
2018-04-02T12:11:56.198Z,8.53
2018-04-02T12:14:23.481Z,8.07
2018-04-02T12:16:50.769Z,8.50
2018-04-02T12:19:18.020Z,9.37
2018-04-02T12:21:45.287Z,9.40
2018-04-02T12:24:12.568Z,8.33
2018-04-02T12:26:39.842Z,8.47
2018-04-02T12:29:07.192Z,10.53
2018-04-02T12:31:34.553Z,8.70
2018-04-02T12:34:01.818Z,8.83
2018-04-02T12:36:29.110Z,8.97
2018-04-02T12:38:56.364Z,7.03
2018-04-02T12:41:23.641Z,7.43
2018-04-02T12:43:50.905Z,7.00
2018-04-02T12:46:18.294Z,6.77
2018-04-02T12:48:45.564Z,6.23
2018-04-02T12:51:12.821Z,6.40
2018-04-02T12:53:40.182Z,6.03
2018-04-02T12:56:07.421Z,7.40
2018-04-02T12:58:34.712Z,7.23
2018-04-02T13:01:02.002Z,7.23
2018-04-02T13:03:29.252Z,8.50
2018-04-02T13:05:56.546Z,8.00
2018-04-02T13:08:23.860Z,7.97
2018-04-02T13:10:51.129Z,8.50
2018-04-02T13:13:18.412Z,7.50
2018-04-02T13:15:45.726Z,8.17
2018-04-02T13:18:13.009Z,7.70
2018-04-02T13:20:40.273Z,7.87
2018-04-02T13:23:07.520Z,6.73
2018-04-02T13:25:34.827Z,7.00
2018-04-02T13:28:02.049Z,7.70
2018-04-02T13:30:29.314Z,7.50
2018-04-02T13:32:56.614Z,8.00
2018-04-02T13:35:23.878Z,6.63
2018-04-02T13:37:51.146Z,7.20
2018-04-02T13:40:18.401Z,7.60
2018-04-02T13:42:45.673Z,6.80
2018-04-02T13:45:12.972Z,6.37
2018-04-02T13:47:40.260Z,6.23
2018-04-02T13:50:07.520Z,7.10
2018-04-02T13:52:34.775Z,7.10
2018-04-02T13:55:02.065Z,6.90
2018-04-02T13:57:29.316Z,7.57
2018-04-02T13:59:56.568Z,7.23
2018-04-02T14:02:23.845Z,6.87
2018-04-02T14:04:51.205Z,6.43
2018-04-02T14:07:18.458Z,7.30
2018-04-02T14:09:45.708Z,5.90
2018-04-02T14:12:12.981Z,6.27
2018-04-02T14:14:40.257Z,5.93
2018-04-02T14:17:07.513Z,5.80
2018-04-02T14:19:34.792Z,5.97
2018-04-02T14:22:02.087Z,7.17
2018-04-02T14:24:29.365Z,5.70
2018-04-02T14:26:56.690Z,6.10
2018-04-02T14:29:23.948Z,6.27
2018-04-02T14:31:51.216Z,5.47
2018-04-02T14:34:18.468Z,5.60
2018-04-02T14:36:45.752Z,4.80
2018-04-02T14:39:13.056Z,5.00
2018-04-02T14:41:40.411Z,4.60
2018-04-02T14:44:07.660Z,4.93
2018-04-02T14:46:34.948Z,5.50
2018-04-02T14:49:02.281Z,4.90
2018-04-02T14:51:29.536Z,4.77
2018-04-02T14:53:56.808Z,5.30
2018-04-02T14:56:24.151Z,5.43
2018-04-02T14:58:51.404Z,4.40
2018-04-02T15:01:18.765Z,4.50
2018-04-02T15:03:46.110Z,4.60
2018-04-02T15:06:13.359Z,4.53
2018-04-02T15:08:40.712Z,4.30
2018-04-02T15:11:07.964Z,4.23
2018-04-02T15:13:35.242Z,5.80
2018-04-02T15:16:02.500Z,5.90
2018-04-02T15:18:29.833Z,7.30
2018-04-02T15:20:57.088Z,8.70
2018-04-02T15:23:24.360Z,4.20
2018-04-02T15:25:51.609Z,4.27
2018-04-02T15:28:18.898Z,3.73
2018-04-02T15:30:46.147Z,4.33
2018-04-02T15:33:13.416Z,5.00
2018-04-02T15:35:40.699Z,4.90
2018-04-02T15:38:07.953Z,7.97
2018-04-02T15:40:35.314Z,6.10
2018-04-02T15:43:02.564Z,4.67
2018-04-02T15:45:29.893Z,5.17
2018-04-02T15:47:57.152Z,4.47
2018-04-02T15:50:24.420Z,4.90
2018-04-02T15:52:51.694Z,5.10
2018-04-02T15:55:19.051Z,4.83
2018-04-02T15:57:46.300Z,5.40
2018-04-02T16:00:13.576Z,4.70
2018-04-02T16:02:40.824Z,4.97
2018-04-02T16:05:08.096Z,4.27
2018-04-02T16:07:35.354Z,3.97
2018-04-02T16:10:02.672Z,3.73
2018-04-02T16:12:29.928Z,3.40
2018-04-02T16:14:57.196Z,3.33
2018-04-02T16:17:24.448Z,2.83
2018-04-02T16:19:51.732Z,3.60
2018-04-02T16:22:18.988Z,4.30
2018-04-02T16:24:46.293Z,3.90
2018-04-02T16:27:13.653Z,3.27
2018-04-02T16:29:40.901Z,3.70
2018-04-02T16:32:08.172Z,3.20
2018-04-02T16:34:35.436Z,3.70
2018-04-02T16:37:02.708Z,3.90
2018-04-02T16:39:29.961Z,3.53
2018-04-02T16:41:57.229Z,3.60
2018-04-02T16:44:24.485Z,3.70
2018-04-02T16:46:51.749Z,3.40
2018-04-02T16:49:19.004Z,3.10
2018-04-02T16:51:46.273Z,3.20
2018-04-02T16:54:13.523Z,3.40
2018-04-02T16:56:40.800Z,3.23
2018-04-02T16:59:08.052Z,2.67
2018-04-02T17:01:35.313Z,2.93
2018-04-02T17:04:02.581Z,3.07
2018-04-02T17:06:29.837Z,2.93
2018-04-02T17:08:57.108Z,2.40
2018-04-02T17:11:24.365Z,2.10
2018-04-02T17:13:51.669Z,2.40
2018-04-02T17:16:19.013Z,2.20
2018-04-02T17:18:46.307Z,2.70
2018-04-02T17:21:13.558Z,2.13
2018-04-02T17:23:40.812Z,2.23
2018-04-02T17:26:08.096Z,1.93
2018-04-02T17:28:35.364Z,2.30
2018-04-02T17:31:02.656Z,2.40
2018-04-02T17:33:29.936Z,2.40
2018-04-02T17:35:57.189Z,2.10
2018-04-02T17:38:24.464Z,2.30
2018-04-02T17:40:51.725Z,2.67
2018-04-02T17:43:18.976Z,2.53
2018-04-02T17:45:47.166Z,1.80
2018-04-02T17:48:14.421Z,2.00
2018-04-02T17:50:41.701Z,2.00
2018-04-02T17:53:08.952Z,2.30
2018-04-02T17:55:36.303Z,2.30
2018-04-02T17:58:03.565Z,2.30
2018-04-02T18:00:30.884Z,2.70
2018-04-02T18:02:58.130Z,2.03
2018-04-02T18:05:25.407Z,2.00
2018-04-02T18:07:52.658Z,2.00
2018-04-02T18:10:19.924Z,2.50
2018-04-02T18:12:47.187Z,2.17
2018-04-02T18:15:14.466Z,2.63
2018-04-02T18:17:41.718Z,2.00
2018-04-02T18:20:08.994Z,2.07
2018-04-02T18:22:36.247Z,1.90
2018-04-02T18:25:03.544Z,2.37
2018-04-02T18:27:30.812Z,2.40
2018-04-02T18:29:58.069Z,2.13
2018-04-02T18:32:25.356Z,1.97
2018-04-02T18:34:52.608Z,2.80
2018-04-02T18:37:19.912Z,3.00
2018-04-02T18:39:47.183Z,2.63
2018-04-02T18:42:14.456Z,2.40
2018-04-02T18:44:41.717Z,2.60
2018-04-02T18:47:08.994Z,2.27
2018-04-02T18:49:36.245Z,2.60
2018-04-02T18:52:03.536Z,2.20
2018-04-02T18:54:30.792Z,2.70
2018-04-02T18:56:58.079Z,2.60
2018-04-02T18:59:25.353Z,2.70
2018-04-02T19:01:52.591Z,2.30
2018-04-02T19:04:19.904Z,2.40
2018-04-02T19:06:47.160Z,2.57
2018-04-02T19:09:14.449Z,2.30
2018-04-02T19:11:41.680Z,2.70
2018-04-02T19:14:08.953Z,2.70
2018-04-02T19:16:36.200Z,2.27
2018-04-02T19:19:03.480Z,2.37
2018-04-02T19:21:30.780Z,2.33
2018-04-02T19:23:58.053Z,2.80
2018-04-02T19:26:25.300Z,2.50
2018-04-02T19:28:52.706Z,2.73
2018-04-02T19:31:19.965Z,2.90
2018-04-02T19:33:47.240Z,2.63
2018-04-02T19:36:14.529Z,2.23
2018-04-02T19:38:41.780Z,2.90
2018-04-02T19:41:09.033Z,2.80
2018-04-02T19:43:36.317Z,2.70
2018-04-02T19:46:03.586Z,2.50
2018-04-02T19:48:30.833Z,2.50
2018-04-02T19:50:58.110Z,2.40
2018-04-02T19:53:25.355Z,2.40
2018-04-02T19:55:52.649Z,2.10
2018-04-02T19:58:19.901Z,2.30
2018-04-02T20:00:47.174Z,2.60
2018-04-02T20:03:14.423Z,2.20
2018-04-02T20:05:41.697Z,2.60
2018-04-02T20:08:08.956Z,2.40
2018-04-02T20:10:36.236Z,2.67
2018-04-02T20:13:03.489Z,2.30
2018-04-02T20:15:30.792Z,2.17
2018-04-02T20:17:58.048Z,2.80
2018-04-02T20:20:25.293Z,2.17
2018-04-02T20:22:52.619Z,2.13
2018-04-02T20:25:19.828Z,2.10
2018-04-02T20:27:47.112Z,2.27
2018-04-02T20:30:14.387Z,2.00
2018-04-02T20:32:41.666Z,2.17
2018-04-02T20:35:09.073Z,2.07
2018-04-02T20:37:36.328Z,2.50
2018-04-02T20:40:03.582Z,2.50
2018-04-02T20:42:30.852Z,2.60
2018-04-02T20:44:58.109Z,2.17
2018-04-02T20:47:25.381Z,2.57
2018-04-02T20:49:52.643Z,2.70
2018-04-02T20:52:19.904Z,2.57
2018-04-02T20:54:47.173Z,2.27
2018-04-02T20:57:14.436Z,2.47
2018-04-02T20:59:41.705Z,2.57
2018-04-02T21:02:09.001Z,2.57
2018-04-02T21:04:36.348Z,2.57
2018-04-02T21:07:03.600Z,2.73
2018-04-02T21:09:30.884Z,2.47
2018-04-02T21:11:59.933Z,2.23
2018-04-02T21:14:27.204Z,2.73
2018-04-02T21:16:54.452Z,2.57
2018-04-02T21:19:21.733Z,3.00
2018-04-02T21:21:48.993Z,3.10
2018-04-02T21:24:16.479Z,2.53
2018-04-02T21:26:43.816Z,2.90
2018-04-02T21:29:11.056Z,2.70
2018-04-02T21:31:38.380Z,3.10
2018-04-02T21:34:05.646Z,2.80
2018-04-02T21:36:32.921Z,2.90
2018-04-02T21:39:00.201Z,2.80
2018-04-02T21:41:27.468Z,3.00
2018-04-02T21:43:54.720Z,2.70
2018-04-02T21:46:22.004Z,2.90
2018-04-02T21:48:49.256Z,2.90
2018-04-02T21:51:16.524Z,2.83
2018-04-02T21:53:43.786Z,2.93
2018-04-02T21:56:11.124Z,3.30
2018-04-02T21:58:38.473Z,3.03
2018-04-02T22:01:05.744Z,3.37
2018-04-02T22:03:33.184Z,2.87
2018-04-02T22:06:00.452Z,2.97
2018-04-02T22:08:27.716Z,2.73
2018-04-02T22:10:54.996Z,3.27
2018-04-02T22:13:22.260Z,2.60
2018-04-02T22:15:49.496Z,2.80
2018-04-02T22:18:16.823Z,2.70
2018-04-02T22:20:44.078Z,2.40
2018-04-02T22:23:11.336Z,3.20
2018-04-02T22:25:38.606Z,2.70
2018-04-02T22:28:06.100Z,2.87
2018-04-02T22:30:33.367Z,2.63
2018-04-02T22:33:00.641Z,3.10
2018-04-02T22:35:27.890Z,3.10
2018-04-02T22:37:55.160Z,3.00
2018-04-02T22:40:22.417Z,3.20
2018-04-02T22:42:49.686Z,3.23
2018-04-02T22:45:16.932Z,2.70
2018-04-02T22:47:44.216Z,3.00
2018-04-02T22:50:11.520Z,3.23
2018-04-02T22:52:38.808Z,3.60
2018-04-02T22:55:06.056Z,2.80
2018-04-02T22:57:33.413Z,2.60
2018-04-02T23:00:00.785Z,2.47
2018-04-02T23:02:28.037Z,2.90
2018-04-02T23:04:55.321Z,3.07
2018-04-02T23:07:22.592Z,2.70
2018-04-02T23:09:49.848Z,3.00
2018-04-02T23:12:17.124Z,2.77
2018-04-02T23:14:44.381Z,2.60
2018-04-02T23:17:11.636Z,3.00
2018-04-02T23:19:38.962Z,2.63
2018-04-02T23:22:06.249Z,3.07
2018-04-02T23:24:33.512Z,2.70
2018-04-02T23:27:00.768Z,2.50
2018-04-02T23:29:28.042Z,2.80
2018-04-02T23:31:55.316Z,2.73
2018-04-02T23:34:22.585Z,2.50
2018-04-02T23:36:49.836Z,2.50
2018-04-02T23:39:17.085Z,2.43
2018-04-02T23:41:44.356Z,2.07
2018-04-02T23:44:11.607Z,2.50
2018-04-02T23:46:38.961Z,2.23
2018-04-02T23:49:06.214Z,2.10
2018-04-02T23:51:33.486Z,2.43
2018-04-02T23:54:00.736Z,2.00
2018-04-02T23:56:28.008Z,2.60
2018-04-02T23:58:55.260Z,2.73
